createdAt,value
2022-10-02T00:09:44.219Z,11.9
2022-10-02T00:19:45.243Z,12
2022-10-02T00:29:45.977Z,12
2022-10-02T00:39:46.437Z,12
2022-10-02T00:59:47.549Z,12.1
2022-10-02T01:09:48.110Z,12.2
2022-10-02T01:19:48.474Z,12.2
2022-10-02T01:29:48.743Z,12.3
2022-10-02T01:39:49.100Z,12.4
2022-10-02T01:49:49.907Z,12.4
2022-10-02T01:59:50.706Z,12.5
2022-10-02T02:09:51.241Z,12.5
2022-10-02T02:19:51.434Z,12.5
2022-10-02T02:29:51.869Z,12.6
2022-10-02T02:39:52.451Z,12.7
2022-10-02T02:49:53.527Z,12.6
2022-10-02T02:59:54.514Z,12.6
2022-10-02T03:09:54.723Z,12.6
2022-10-02T03:19:55.187Z,12.6
2022-10-02T03:29:55.620Z,12.7
2022-10-02T03:39:56.053Z,12.7
2022-10-02T03:49:56.923Z,12.7
2022-10-02T03:59:57.892Z,12.6
2022-10-02T04:09:58.797Z,12.6
2022-10-02T04:19:59.550Z,12.6
2022-10-02T04:30:00.427Z,12.6
2022-10-02T04:40:00.765Z,12.6
2022-10-02T04:50:01.807Z,12.7
2022-10-02T05:10:03.580Z,12.5
2022-10-02T05:20:04.650Z,12.5
2022-10-02T05:30:05.614Z,12.6
2022-10-02T05:50:07.274Z,12.6
2022-10-02T06:10:08.311Z,12.7
2022-10-02T06:30:09.697Z,12.7
2022-10-02T06:40:10.612Z,12.9
2022-10-02T06:50:11.270Z,13.1
2022-10-02T07:00:12.251Z,13.3
2022-10-02T07:10:12.637Z,13.4
2022-10-02T07:20:13.452Z,13.5
2022-10-02T07:30:13.898Z,13.8
2022-10-02T07:40:14.251Z,14.4
2022-10-02T07:50:14.755Z,14.5
2022-10-02T08:00:15.177Z,14.6
2022-10-02T08:10:15.975Z,14.8
2022-10-02T08:30:16.722Z,14.8
2022-10-02T08:40:17.105Z,14.8
2022-10-02T08:50:18.081Z,14.9
2022-10-02T09:00:18.695Z,14.8
2022-10-02T09:10:19.517Z,14.6
2022-10-02T09:20:20.521Z,14.6
2022-10-02T09:30:21.083Z,14.7
2022-10-02T09:40:21.721Z,14.9
2022-10-02T10:20:23.404Z,16.6
2022-10-02T10:40:25.025Z,17
2022-10-02T11:00:25.788Z,17.6
2022-10-02T11:20:26.538Z,16.9
2022-10-02T11:30:27.252Z,16.8
2022-10-02T11:40:27.353Z,16.8
2022-10-02T12:00:29.086Z,17
2022-10-02T12:10:30.133Z,16.9
2022-10-02T12:20:30.239Z,17
2022-10-02T12:30:30.616Z,17.5
2022-10-02T12:40:30.792Z,17.1
2022-10-02T12:50:31.437Z,16.8
2022-10-02T13:00:32.377Z,16.6
2022-10-02T13:20:33.679Z,16.9
2022-10-02T13:30:34.743Z,16.8
2022-10-02T13:40:34.982Z,16.9
2022-10-02T14:00:41.981Z,16.6
2022-10-02T14:10:42.873Z,17
2022-10-02T14:20:43.732Z,17.9
2022-10-02T14:30:44.501Z,18.4
2022-10-02T14:40:45.453Z,18.5
2022-10-02T14:50:45.763Z,18.6
2022-10-02T15:00:46.632Z,18.3
2022-10-02T15:10:47.231Z,18.6
2022-10-02T15:20:48.060Z,18.3
2022-10-02T15:30:48.352Z,17.5
2022-10-02T15:40:48.801Z,17.4
2022-10-02T15:50:49.686Z,17
2022-10-02T16:00:49.810Z,16.7
2022-10-02T16:10:50.217Z,16.3
2022-10-02T16:30:51.583Z,15.8
2022-10-02T16:40:51.914Z,15.5
2022-10-02T16:50:52.419Z,15.3
2022-10-02T17:00:53.004Z,14.9
2022-10-02T17:10:53.498Z,14.5
2022-10-02T17:20:53.600Z,14.2
2022-10-02T17:30:54.169Z,13.9
2022-10-02T17:40:55.045Z,13.6
2022-10-02T17:50:55.949Z,13.3
2022-10-02T18:00:56.216Z,13
2022-10-02T18:10:57.152Z,12.8
2022-10-02T18:20:57.754Z,12.5
2022-10-02T18:30:57.942Z,12.6
2022-10-02T18:40:58.977Z,12.8
2022-10-02T18:50:59.362Z,12.9
2022-10-02T19:00:59.998Z,12.7
2022-10-02T19:11:00.290Z,12.3
2022-10-02T19:31:00.934Z,12
2022-10-02T19:41:01.698Z,12
2022-10-02T19:51:02.076Z,11.9
2022-10-02T20:01:02.578Z,11.8
2022-10-02T20:21:03.503Z,11.5
2022-10-02T20:41:03.844Z,11.2
2022-10-02T20:51:04.542Z,11
2022-10-02T21:01:04.771Z,10.7
2022-10-02T21:11:04.857Z,10.5
2022-10-02T21:21:05.488Z,10.4
2022-10-02T21:31:05.834Z,10.2
2022-10-02T21:41:06.566Z,10
2022-10-02T21:51:07.655Z,9.8
2022-10-02T22:01:08.102Z,9.6
2022-10-02T23:21:12.928Z,8.7
2022-10-02T23:31:13.327Z,8.6
2022-10-02T23:51:15.123Z,8.5
